createdAt,value
2018-07-16T00:00:22.641Z,101161.42
2018-07-16T00:02:51.876Z,101158.83
2018-07-16T00:05:20.614Z,101160.97
2018-07-16T00:07:49.864Z,101165.19
2018-07-16T00:10:18.892Z,101164.78
2018-07-16T00:12:47.709Z,101155.29
2018-07-16T00:15:16.582Z,101162.53
2018-07-16T00:17:46.618Z,101157.82
2018-07-16T00:20:15.397Z,101157.64
2018-07-16T00:22:44.163Z,101156.20
2018-07-16T00:25:12.867Z,101156.44
2018-07-16T00:27:41.706Z,101167.02
2018-07-16T00:30:10.543Z,101162.05
2018-07-16T00:32:39.328Z,101155.49
2018-07-16T00:35:08.754Z,101156.36
2018-07-16T00:37:37.401Z,101149.99
2018-07-16T00:40:06.202Z,101148.56
2018-07-16T00:42:35.404Z,101151.00
2018-07-16T00:45:04.399Z,101153.41
2018-07-16T00:47:33.589Z,101153.71
2018-07-16T00:50:02.276Z,101147.39
2018-07-16T00:52:31.014Z,101150.50
2018-07-16T00:54:59.725Z,101156.37
2018-07-16T00:57:29.075Z,101149.67
2018-07-16T00:59:57.841Z,101152.38
2018-07-16T01:02:27.036Z,101145.69
2018-07-16T01:04:55.960Z,101142.75
2018-07-16T01:07:25.303Z,101135.42
2018-07-16T01:09:54.389Z,101142.75
2018-07-16T01:12:23.084Z,101138.61
2018-07-16T01:14:52.014Z,101142.98
2018-07-16T01:17:23.258Z,101141.92
2018-07-16T01:19:51.969Z,101134.32
2018-07-16T01:22:20.676Z,101137.18
2018-07-16T01:24:49.450Z,101130.91
2018-07-16T01:27:18.269Z,101132.52
2018-07-16T01:29:46.935Z,101131.86
2018-07-16T01:32:15.896Z,101125.31
2018-07-16T01:34:46.236Z,101132.91
2018-07-16T01:37:15.333Z,101139.55
2018-07-16T01:39:45.845Z,101143.34
2018-07-16T01:42:14.532Z,101143.34
2018-07-16T01:44:43.416Z,101147.48
2018-07-16T01:47:12.226Z,101146.66
2018-07-16T01:49:40.914Z,101144.17
2018-07-16T01:52:09.891Z,101142.25
2018-07-16T01:54:38.673Z,101137.58
2018-07-16T01:57:07.810Z,101135.17
2018-07-16T01:59:36.513Z,101140.73
2018-07-16T02:02:05.388Z,101136.55
2018-07-16T02:04:34.057Z,101145.41
2018-07-16T02:07:02.682Z,101133.53
2018-07-16T02:09:31.575Z,101134.89
2018-07-16T02:12:00.835Z,101140.00
2018-07-16T02:14:29.455Z,101137.82
2018-07-16T02:16:58.077Z,101140.00
2018-07-16T02:19:26.706Z,101144.23
2018-07-16T02:21:55.361Z,101148.60
2018-07-16T02:24:23.999Z,101142.88
2018-07-16T02:26:52.670Z,101137.39
2018-07-16T02:29:21.363Z,101139.73
2018-07-16T02:31:49.950Z,101138.22
2018-07-16T02:34:18.546Z,101136.13
2018-07-16T02:36:47.220Z,101133.59
2018-07-16T02:39:15.954Z,101129.37
2018-07-16T02:41:45.282Z,101128.32
2018-07-16T02:44:13.976Z,101130.28
2018-07-16T02:46:42.863Z,101131.02
2018-07-16T02:49:11.496Z,101129.98
2018-07-16T02:51:40.154Z,101134.34
2018-07-16T02:54:08.833Z,101134.03
2018-07-16T02:56:37.492Z,101134.03
2018-07-16T02:59:06.534Z,101132.37
2018-07-16T03:01:35.236Z,101136.91
2018-07-16T03:04:03.849Z,101129.20
2018-07-16T03:06:33.282Z,101140.55
2018-07-16T03:09:01.911Z,101139.67
2018-07-16T03:11:30.592Z,101139.20
2018-07-16T03:13:59.349Z,101141.67
2018-07-16T03:16:28.686Z,101143.03
2018-07-16T03:18:57.381Z,101135.44
2018-07-16T03:21:26.466Z,101134.77
2018-07-16T03:23:55.099Z,101131.23
2018-07-16T03:26:23.756Z,101136.27
2018-07-16T03:28:52.447Z,101140.62
2018-07-16T03:31:21.131Z,101144.99
2018-07-16T03:33:49.821Z,101143.64
2018-07-16T03:36:18.819Z,101140.41
2018-07-16T03:38:47.746Z,101138.97
2018-07-16T03:41:17.113Z,101139.13
2018-07-16T03:43:45.760Z,101135.69
2018-07-16T03:46:14.419Z,101141.09
2018-07-16T03:48:43.294Z,101138.92
2018-07-16T03:51:11.924Z,101135.69
2018-07-16T03:53:40.950Z,101138.70
2018-07-16T03:56:09.647Z,101133.34
2018-07-16T03:58:38.356Z,101133.20
2018-07-16T04:01:07.286Z,101128.53
2018-07-16T04:03:35.997Z,101126.80
2018-07-16T04:06:05.354Z,101131.94
2018-07-16T04:08:34.063Z,101133.72
2018-07-16T04:11:02.778Z,101131.77
2018-07-16T04:13:31.576Z,101137.48
2018-07-16T04:16:00.613Z,101127.27
2018-07-16T04:18:29.600Z,101125.53
2018-07-16T04:20:58.242Z,101127.27
2018-07-16T04:23:27.072Z,101130.11
2018-07-16T04:25:55.724Z,101133.42
2018-07-16T04:28:24.372Z,101134.78
2018-07-16T04:30:53.111Z,101137.54
2018-07-16T04:33:21.750Z,101139.31
2018-07-16T04:35:50.694Z,101139.09
2018-07-16T04:38:19.330Z,101133.52
2018-07-16T04:40:48.370Z,101128.18
2018-07-16T04:43:17.346Z,101129.06
2018-07-16T04:45:46.037Z,101128.84
2018-07-16T04:48:14.694Z,101131.46
2018-07-16T04:50:43.367Z,101124.70
2018-07-16T04:53:12.256Z,101124.86
2018-07-16T04:55:40.895Z,101124.08
2018-07-16T04:58:09.862Z,101129.05
2018-07-16T05:00:38.551Z,101115.21
2018-07-16T05:03:07.430Z,101123.81
2018-07-16T05:05:36.075Z,101121.68
2018-07-16T05:08:04.737Z,101120.70
2018-07-16T05:10:33.496Z,101114.02
2018-07-16T05:13:02.211Z,101112.94
2018-07-16T05:15:31.156Z,101109.66
2018-07-16T05:18:00.188Z,101118.44
2018-07-16T05:20:28.853Z,101118.56
2018-07-16T05:22:57.523Z,101111.05
2018-07-16T05:25:26.715Z,101119.59
2018-07-16T05:27:55.808Z,101111.55
2018-07-16T05:30:24.870Z,101116.74
2018-07-16T05:32:53.903Z,101107.91
2018-07-16T05:35:23.259Z,101107.77
2018-07-16T05:37:51.931Z,101114.05
2018-07-16T05:40:20.892Z,101112.25
2018-07-16T05:42:50.044Z,101112.05
2018-07-16T05:45:20.960Z,101113.61
2018-07-16T05:47:50.053Z,101109.31
2018-07-16T05:50:18.928Z,101111.02
2018-07-16T05:52:47.560Z,101107.38
2018-07-16T05:55:16.158Z,101105.09
2018-07-16T05:57:45.438Z,101096.31
2018-07-16T06:00:14.055Z,101101.44
2018-07-16T06:02:42.971Z,101093.45
2018-07-16T06:05:11.676Z,101090.02
2018-07-16T06:07:40.855Z,101091.25
2018-07-16T06:10:09.547Z,101090.80
2018-07-16T06:12:38.191Z,101094.52
2018-07-16T06:15:06.914Z,101091.61
2018-07-16T06:17:36.523Z,101092.51
2018-07-16T06:20:06.161Z,101091.26
2018-07-16T06:22:34.800Z,101082.36
2018-07-16T06:25:03.963Z,101088.95
2018-07-16T06:27:32.909Z,101081.87
2018-07-16T06:30:01.771Z,101084.42
2018-07-16T06:32:31.236Z,101080.45
2018-07-16T06:35:00.071Z,101089.28
2018-07-16T06:37:29.731Z,101087.27
2018-07-16T06:39:58.770Z,101089.17
2018-07-16T06:42:27.342Z,101086.72
2018-07-16T06:44:56.087Z,101087.79
2018-07-16T06:47:24.771Z,101087.23
2018-07-16T06:49:53.413Z,101085.88
2018-07-16T06:52:22.140Z,101088.61
2018-07-16T06:54:51.335Z,101089.31
2018-07-16T06:57:20.252Z,101086.56
2018-07-16T06:59:48.949Z,101086.35
2018-07-16T07:02:18.139Z,101084.27
2018-07-16T07:04:46.726Z,101081.58
2018-07-16T07:07:15.374Z,101083.20
2018-07-16T07:09:44.111Z,101073.66
2018-07-16T07:12:12.835Z,101074.38
2018-07-16T07:14:41.483Z,101079.50
2018-07-16T07:17:10.453Z,101080.53
2018-07-16T07:19:39.162Z,101074.98
2018-07-16T07:22:08.229Z,101072.80
2018-07-16T07:24:37.532Z,101063.92
2018-07-16T07:27:06.646Z,101067.34
2018-07-16T07:29:35.625Z,101060.78
2018-07-16T07:32:04.411Z,101060.63
2018-07-16T07:34:33.344Z,101062.23
2018-07-16T07:37:02.036Z,101059.98
2018-07-16T07:39:30.720Z,101064.73
2018-07-16T07:41:59.374Z,101061.05
2018-07-16T07:44:28.027Z,101053.48
2018-07-16T07:46:57.083Z,101058.94
2018-07-16T07:49:25.775Z,101065.14
2018-07-16T07:51:54.500Z,101068.45
2018-07-16T07:54:23.417Z,101067.66
2018-07-16T07:56:52.042Z,101069.88
2018-07-16T07:59:20.720Z,101066.86
2018-07-16T08:01:49.536Z,101070.45
2018-07-16T08:04:19.407Z,101064.45
2018-07-16T08:06:53.266Z,101069.65
2018-07-16T08:09:21.940Z,101060.09
2018-07-16T08:11:50.652Z,101068.41
2018-07-16T08:14:19.381Z,101071.41
2018-07-16T08:16:48.230Z,101065.70
2018-07-16T08:19:17.281Z,101066.25
2018-07-16T08:21:46.245Z,101066.84
2018-07-16T08:24:16.037Z,101059.41
2018-07-16T08:26:45.107Z,101062.08
2018-07-16T08:29:14.130Z,101059.19
2018-07-16T08:31:43.082Z,101059.52
2018-07-16T08:34:12.546Z,101047.27
2018-07-16T08:36:41.636Z,101060.51
2018-07-16T08:39:10.642Z,101046.76
2018-07-16T08:41:39.591Z,101048.48
2018-07-16T08:44:08.334Z,101039.70
2018-07-16T08:46:37.077Z,101044.25
2018-07-16T08:49:05.872Z,101051.69
2018-07-16T08:51:34.573Z,101050.31
2018-07-16T08:54:03.318Z,101047.39
2018-07-16T08:56:32.383Z,101036.91
2018-07-16T08:59:01.436Z,101046.53
2018-07-16T09:01:30.138Z,101045.95
2018-07-16T09:03:59.236Z,101041.24
2018-07-16T09:06:27.993Z,101033.84
2018-07-16T09:08:56.774Z,101035.16
2018-07-16T09:11:25.423Z,101043.94
2018-07-16T09:13:54.606Z,101043.56
2018-07-16T09:16:23.310Z,101044.06
2018-07-16T09:18:52.379Z,101041.61
2018-07-16T09:21:21.033Z,101045.27
2018-07-16T09:23:50.022Z,101047.46
2018-07-16T09:26:18.654Z,101048.16
2018-07-16T09:28:47.456Z,101038.30
2018-07-16T09:31:16.546Z,101030.13
2018-07-16T09:33:45.255Z,101035.53
2018-07-16T09:36:13.978Z,101035.17
2018-07-16T09:38:42.721Z,101036.78
2018-07-16T09:41:11.709Z,101040.75
2018-07-16T09:43:40.364Z,101037.12
2018-07-16T09:46:09.079Z,101033.09
2018-07-16T09:48:38.158Z,101031.80
2018-07-16T09:51:07.010Z,101033.58
2018-07-16T09:53:35.765Z,101029.50
2018-07-16T09:56:04.556Z,101029.56
2018-07-16T09:58:33.639Z,101021.42
2018-07-16T10:01:07.575Z,101018.66
2018-07-16T10:03:36.246Z,101009.89
2018-07-16T10:06:05.119Z,101000.64
2018-07-16T10:08:33.933Z,101007.73
2018-07-16T10:11:03.218Z,101002.78
2018-07-16T10:13:31.946Z,101003.84
2018-07-16T10:16:00.892Z,101010.17
2018-07-16T10:18:29.999Z,101006.63
2018-07-16T10:20:58.759Z,101000.01
2018-07-16T10:23:27.457Z,101000.83
2018-07-16T10:25:56.341Z,100998.86
2018-07-16T10:28:30.280Z,100999.68
2018-07-16T10:30:58.987Z,100997.77
2018-07-16T10:33:27.658Z,100999.37
2018-07-16T10:35:56.666Z,100995.78
2018-07-16T10:38:25.913Z,100994.84
2018-07-16T10:40:54.690Z,100976.45
2018-07-16T10:43:23.523Z,100982.33
2018-07-16T10:45:52.193Z,100983.07
2018-07-16T10:48:20.802Z,100976.59
2018-07-16T10:50:49.519Z,100978.91
2018-07-16T10:53:18.254Z,100977.68
2018-07-16T10:55:46.987Z,100973.84
2018-07-16T10:58:15.730Z,100972.31
2018-07-16T11:00:44.747Z,100971.70
2018-07-16T11:03:13.479Z,100968.97
2018-07-16T11:05:42.325Z,100967.23
2018-07-16T11:08:11.125Z,100964.06
2018-07-16T11:10:40.424Z,100960.25
2018-07-16T11:13:09.172Z,100965.09
2018-07-16T11:15:37.921Z,100952.24
2018-07-16T11:18:06.735Z,100954.03
2018-07-16T11:20:35.430Z,100951.22
2018-07-16T11:23:04.247Z,100944.55
2018-07-16T11:25:32.991Z,100946.25
2018-07-16T11:28:01.674Z,100949.37
2018-07-16T11:30:30.356Z,100944.55
2018-07-16T11:32:59.252Z,100945.03
2018-07-16T11:35:27.959Z,100943.81
2018-07-16T11:37:56.721Z,100945.89
2018-07-16T11:40:25.409Z,100943.34
2018-07-16T11:42:54.181Z,100942.51
2018-07-16T11:45:23.161Z,100941.80
2018-07-16T11:47:51.917Z,100936.67
2018-07-16T11:50:20.741Z,100941.81
2018-07-16T11:52:49.503Z,100934.57
2018-07-16T11:55:18.583Z,100936.13
2018-07-16T11:57:47.558Z,100930.76
2018-07-16T12:00:16.268Z,100929.13
2018-07-16T12:02:45.169Z,100922.36
2018-07-16T12:05:14.229Z,100924.39
2018-07-16T12:07:43.183Z,100916.48
2018-07-16T12:10:12.082Z,100921.11
2018-07-16T12:12:42.098Z,100907.50
2018-07-16T12:15:11.599Z,100910.62
2018-07-16T12:17:41.703Z,100901.30
2018-07-16T12:20:10.424Z,100905.36
2018-07-16T12:22:39.251Z,100898.51
2018-07-16T12:25:07.984Z,100891.50
2018-07-16T12:27:36.777Z,100879.84
2018-07-16T12:30:05.569Z,100884.81
2018-07-16T12:32:34.294Z,100875.22
2018-07-16T12:35:03.060Z,100875.00
2018-07-16T12:37:32.463Z,100865.36
2018-07-16T12:40:01.273Z,100856.00
2018-07-16T12:42:29.969Z,100864.05
2018-07-16T12:44:58.903Z,100860.94
2018-07-16T12:47:27.604Z,100860.23
2018-07-16T12:49:56.271Z,100848.34
2018-07-16T12:52:24.917Z,100848.35
2018-07-16T12:54:53.884Z,100846.41
2018-07-16T12:57:22.668Z,100838.33
2018-07-16T12:59:51.380Z,100845.92
2018-07-16T13:02:20.699Z,100836.84
2018-07-16T13:04:49.714Z,100833.39
2018-07-16T13:07:18.638Z,100828.97
2018-07-16T13:09:47.403Z,100827.14
2018-07-16T13:12:16.094Z,100824.23
2018-07-16T13:14:44.699Z,100817.94
2018-07-16T13:17:14.229Z,100815.91
2018-07-16T13:19:43.314Z,100815.17
2018-07-16T13:22:12.572Z,100810.06
2018-07-16T13:24:41.254Z,100816.48
2018-07-16T13:27:10.310Z,100807.22
2018-07-16T13:29:39.017Z,100798.13
2018-07-16T13:32:07.711Z,100799.53
2018-07-16T13:34:36.363Z,100794.81
2018-07-16T13:37:05.110Z,100798.39
2018-07-16T13:39:34.063Z,100784.16
2018-07-16T13:42:02.757Z,100795.12
2018-07-16T13:44:31.456Z,100790.44
2018-07-16T13:47:00.181Z,100779.12
2018-07-16T13:49:29.026Z,100782.35
2018-07-16T13:51:57.824Z,100770.44
2018-07-16T13:54:26.476Z,100763.00
2018-07-16T13:56:55.146Z,100760.23
2018-07-16T13:59:23.850Z,100753.64
2018-07-16T14:01:53.226Z,100753.22
2018-07-16T14:04:22.245Z,100758.48
2018-07-16T14:06:51.456Z,100751.45
2018-07-16T14:09:20.099Z,100751.97
2018-07-16T14:11:48.756Z,100752.59
2018-07-16T14:14:17.450Z,100757.69
2018-07-16T14:16:46.128Z,100752.07
2018-07-16T14:19:14.894Z,100753.75
2018-07-16T14:21:43.918Z,100744.94
2018-07-16T14:24:12.673Z,100746.84
2018-07-16T14:26:41.285Z,100746.79
2018-07-16T14:29:10.040Z,100740.48
2018-07-16T14:31:39.024Z,100737.96
2018-07-16T14:34:07.853Z,100745.19
2018-07-16T14:36:37.020Z,100740.16
2018-07-16T14:39:06.676Z,100737.96
2018-07-16T14:41:35.491Z,100740.23
2018-07-16T14:44:04.336Z,100737.27
2018-07-16T14:46:33.040Z,100738.50
2018-07-16T14:49:02.297Z,100745.13
2018-07-16T14:51:31.069Z,100737.05
2018-07-16T14:54:00.043Z,100733.69
2018-07-16T14:56:29.167Z,100734.10
2018-07-16T14:58:57.921Z,100728.41
2018-07-16T15:01:26.640Z,100731.59
2018-07-16T15:03:55.573Z,100730.85
2018-07-16T15:06:24.260Z,100724.97
2018-07-16T15:08:53.324Z,100720.24
2018-07-16T15:11:22.034Z,100715.86
2018-07-16T15:13:51.274Z,100722.30
2018-07-16T15:16:20.290Z,100728.25
2018-07-16T15:18:48.932Z,100717.28
2018-07-16T15:21:17.855Z,100724.43
2018-07-16T15:23:46.981Z,100717.38
2018-07-16T15:26:15.690Z,100714.97
2018-07-16T15:28:44.405Z,100720.41
2018-07-16T15:31:13.027Z,100719.00
2018-07-16T15:33:41.742Z,100723.12
2018-07-16T15:36:10.747Z,100718.41
2018-07-16T15:38:39.689Z,100715.47
2018-07-16T15:41:08.707Z,100715.72
2018-07-16T15:43:38.659Z,100719.50
2018-07-16T15:46:07.642Z,100712.25
2018-07-16T15:48:36.411Z,100716.59
2018-07-16T15:51:05.203Z,100711.02
2018-07-16T15:53:34.680Z,100705.63
2018-07-16T15:56:03.710Z,100698.34
2018-07-16T15:58:32.799Z,100697.89
2018-07-16T16:01:01.800Z,100699.16
2018-07-16T16:03:30.418Z,100703.09
2018-07-16T16:05:59.408Z,100691.32
2018-07-16T16:08:31.089Z,100691.37
2018-07-16T16:11:00.092Z,100695.93
2018-07-16T16:13:28.742Z,100698.03
2018-07-16T16:15:57.750Z,100703.95
2018-07-16T16:18:26.525Z,100701.20
2018-07-16T16:20:55.171Z,100705.55
2018-07-16T16:23:23.896Z,100704.89
2018-07-16T16:25:52.580Z,100707.81
2018-07-16T16:28:21.816Z,100707.70
2018-07-16T16:30:50.779Z,100706.52
2018-07-16T16:33:19.519Z,100703.41
2018-07-16T16:35:48.556Z,100706.26
2018-07-16T16:38:17.730Z,100702.06
2018-07-16T16:40:47.328Z,100702.52
2018-07-16T16:43:16.402Z,100702.37
2018-07-16T16:45:45.182Z,100700.27
2018-07-16T16:48:15.517Z,100699.77
2018-07-16T16:50:44.316Z,100700.05
2018-07-16T16:53:13.569Z,100702.52
2018-07-16T16:55:42.302Z,100697.09
2018-07-16T16:58:11.739Z,100695.53
2018-07-16T17:00:41.165Z,100693.36
2018-07-16T17:03:09.912Z,100691.78
2018-07-16T17:05:38.942Z,100690.21
2018-07-16T17:08:08.279Z,100686.66
2018-07-16T17:10:37.165Z,100680.36
2018-07-16T17:13:12.906Z,100683.09
2018-07-16T17:15:45.160Z,100683.98
2018-07-16T17:18:14.634Z,100682.61
2018-07-16T17:20:49.827Z,100676.88
2018-07-16T17:23:18.868Z,100671.73
2018-07-16T17:25:48.850Z,100676.13
2018-07-16T17:28:17.527Z,100670.44
2018-07-16T17:30:46.345Z,100678.11
2018-07-16T17:33:15.041Z,100675.13
2018-07-16T17:35:47.982Z,100673.80
2018-07-16T17:38:16.683Z,100679.56
2018-07-16T17:40:46.803Z,100677.14
2018-07-16T17:43:17.322Z,100681.42
2018-07-16T17:45:48.482Z,100682.09
2018-07-16T17:48:19.088Z,100679.41
2018-07-16T17:50:52.506Z,100677.86
2018-07-16T17:53:21.384Z,100676.80
2018-07-16T17:55:53.792Z,100669.45
2018-07-16T17:58:22.910Z,100674.69
2018-07-16T18:00:54.190Z,100674.42
2018-07-16T18:03:27.166Z,100672.83
2018-07-16T18:05:56.594Z,100680.20
2018-07-16T18:08:25.510Z,100679.70
2018-07-16T18:10:54.439Z,100683.28
2018-07-16T18:13:23.669Z,100685.20
2018-07-16T18:15:52.611Z,100685.51
2018-07-16T18:18:21.845Z,100690.97
2018-07-16T18:20:50.659Z,100697.26
2018-07-16T18:23:19.344Z,100696.74
2018-07-16T18:25:48.226Z,100694.55
2018-07-16T18:28:17.199Z,100704.12
2018-07-16T18:30:45.932Z,100703.88
2018-07-16T18:33:15.276Z,100702.50
2018-07-16T18:35:43.953Z,100699.20
2018-07-16T18:38:13.124Z,100706.60
2018-07-16T18:40:42.189Z,100701.92
2018-07-16T18:43:10.947Z,100700.56
2018-07-16T18:45:39.635Z,100704.97
2018-07-16T18:48:08.966Z,100704.72
2018-07-16T18:50:37.616Z,100709.08
2018-07-16T18:53:06.924Z,100707.16
2018-07-16T18:55:35.582Z,100712.63
2018-07-16T18:58:04.686Z,100723.01
2018-07-16T19:00:33.596Z,100721.37
2018-07-16T19:03:02.353Z,100726.58
2018-07-16T19:05:31.264Z,100723.30
2018-07-16T19:08:00.382Z,100726.03
2018-07-16T19:10:29.093Z,100722.50
2018-07-16T19:12:58.180Z,100724.13
2018-07-16T19:15:28.521Z,100726.34
2018-07-16T19:17:58.842Z,100725.80
2018-07-16T19:20:27.842Z,100730.70
2018-07-16T19:22:57.338Z,100734.25
2018-07-16T19:25:26.220Z,100731.80
2018-07-16T19:27:55.321Z,100735.62
2018-07-16T19:30:24.634Z,100753.62
2018-07-16T19:32:55.571Z,100760.73
2018-07-16T19:35:25.782Z,100770.84
2018-07-16T19:37:56.541Z,100769.48
2018-07-16T19:40:25.328Z,100770.83
2018-07-16T19:42:54.340Z,100767.58
2018-07-16T19:45:23.087Z,100768.41
2018-07-16T19:47:52.606Z,100767.84
2018-07-16T19:50:21.704Z,100764.03
2018-07-16T19:52:50.685Z,100766.20
2018-07-16T19:55:19.668Z,100770.58
2018-07-16T19:57:48.479Z,100767.02
2018-07-16T20:00:17.303Z,100771.11
2018-07-16T20:02:46.033Z,100774.93
2018-07-16T20:05:15.049Z,100770.53
2018-07-16T20:07:43.865Z,100768.64
2018-07-16T20:10:13.118Z,100766.16
2018-07-16T20:12:41.967Z,100763.42
2018-07-16T20:15:10.953Z,100764.25
2018-07-16T20:17:41.191Z,100758.50
2018-07-16T20:20:10.015Z,100759.31
2018-07-16T20:22:40.782Z,100753.87
2018-07-16T20:25:10.281Z,100749.48
2018-07-16T20:27:39.197Z,100747.31
2018-07-16T20:30:10.609Z,100750.84
2018-07-16T20:32:39.418Z,100750.29
2018-07-16T20:35:08.930Z,100745.39
2018-07-16T20:37:37.855Z,100742.11
2018-07-16T20:40:06.542Z,100745.36
2018-07-16T20:42:35.264Z,100745.66
2018-07-16T20:45:04.017Z,100748.37
2018-07-16T20:47:34.123Z,100743.72
2018-07-16T20:50:02.859Z,100742.37
2018-07-16T20:52:32.054Z,100741.27
2018-07-16T20:55:01.865Z,100742.06
2018-07-16T20:57:30.889Z,100742.06
2018-07-16T20:59:59.750Z,100741.51
2018-07-16T21:02:28.424Z,100740.35
2018-07-16T21:04:57.237Z,100748.25
2018-07-16T21:07:25.911Z,100747.16
2018-07-16T21:09:54.621Z,100748.21
2018-07-16T21:12:23.971Z,100753.40
2018-07-16T21:14:52.706Z,100757.46
2018-07-16T21:17:21.888Z,100758.84
2018-07-16T21:19:50.583Z,100756.08
2018-07-16T21:22:19.408Z,100765.02
2018-07-16T21:24:48.507Z,100765.29
2018-07-16T21:27:17.149Z,100766.60
2018-07-16T21:29:46.376Z,100767.16
2018-07-16T21:32:15.122Z,100769.84
2018-07-16T21:34:44.895Z,100767.12
2018-07-16T21:37:13.558Z,100774.22
2018-07-16T21:39:42.793Z,100775.56
2018-07-16T21:42:11.744Z,100771.47
2018-07-16T21:44:41.088Z,100774.73
2018-07-16T21:47:10.428Z,100772.80
2018-07-16T21:49:39.215Z,100773.84
2018-07-16T21:52:07.958Z,100773.77
2018-07-16T21:54:36.697Z,100777.25
2018-07-16T21:57:05.481Z,100770.98
2018-07-16T21:59:34.849Z,100776.44
2018-07-16T22:02:03.653Z,100776.44
2018-07-16T22:04:32.766Z,100781.05
2018-07-16T22:07:01.480Z,100776.44
2018-07-16T22:09:30.253Z,100778.02
2018-07-16T22:11:59.151Z,100773.06
2018-07-16T22:14:28.704Z,100771.09
2018-07-16T22:16:57.891Z,100776.80
2018-07-16T22:19:26.529Z,100771.61
2018-07-16T22:21:55.782Z,100775.84
2018-07-16T22:24:24.544Z,100770.62
2018-07-16T22:26:53.568Z,100768.97
2018-07-16T22:29:22.860Z,100766.82
2018-07-16T22:31:51.541Z,100762.49
2018-07-16T22:34:20.464Z,100766.06
2018-07-16T22:36:55.729Z,100771.25
2018-07-16T22:39:24.554Z,100771.83
2018-07-16T22:41:53.157Z,100771.51
2018-07-16T22:44:21.786Z,100767.90
2018-07-16T22:46:50.383Z,100761.81
2018-07-16T22:49:19.177Z,100766.18
2018-07-16T22:51:48.103Z,100759.88
2018-07-16T22:54:16.758Z,100763.61
2018-07-16T22:56:45.664Z,100763.82
2018-07-16T22:59:14.296Z,100770.33
2018-07-16T23:01:43.369Z,100766.54
2018-07-16T23:04:12.624Z,100765.18
2018-07-16T23:06:41.561Z,100767.03
2018-07-16T23:09:10.782Z,100770.42
2018-07-16T23:11:39.464Z,100772.23
2018-07-16T23:14:08.109Z,100778.48
2018-07-16T23:16:37.017Z,100775.32
2018-07-16T23:19:06.398Z,100775.33
2018-07-16T23:21:35.108Z,100777.71
2018-07-16T23:24:03.857Z,100781.74
2018-07-16T23:26:33.299Z,100778.16
2018-07-16T23:29:01.878Z,100775.89
2018-07-16T23:31:30.779Z,100767.73
2018-07-16T23:33:59.482Z,100768.59
2018-07-16T23:36:28.418Z,100767.86
2018-07-16T23:38:57.400Z,100772.23
2018-07-16T23:41:26.674Z,100767.41
2018-07-16T23:43:55.637Z,100770.62
2018-07-16T23:46:24.552Z,100761.85
2018-07-16T23:48:53.314Z,100763.90
2018-07-16T23:51:21.961Z,100764.09
2018-07-16T23:53:50.581Z,100770.64
2018-07-16T23:56:19.248Z,100765.75
2018-07-16T23:58:47.879Z,100762.83
